Twin Bridges, Montana
Current Conditions -  °F | °C
As of 7:53 AM on Thursday 30 Oct 2014 (Local Time) from KDLN Reporting Station
Overcast Overcast  
Wind Chill: 32°   Ceiling: 7000
Heat Index: 36°   Visibility: 10mi
Dew Point: 29°   Wind: 5mph
Humidity: 76%   Direction: 350°N
Pressure: 30.28"   Gusts: NA
Location:  45.54°N, 112.33°W
Report Text: KDLN 301353Z AUTO 35004KT 10SM BKN070 OVC090 02/M02 A3028 RMK AO2 SLP257 T00221017
Loading
Personal Weather Stations






























Interactive Weather Map
Tropical Storm Tracking
New forecast layout! Learn more

10-Day Weather Forecast

Advertisements
Track Severe Weather on mobile